createdAt,value
2018-06-27T00:02:28.305Z,11.23
2018-06-27T00:04:56.752Z,11.10
2018-06-27T00:07:25.214Z,10.50
2018-06-27T00:09:53.590Z,11.20
2018-06-27T00:12:22.092Z,10.90
2018-06-27T00:14:50.540Z,10.63
2018-06-27T00:17:18.934Z,12.23
2018-06-27T00:19:47.393Z,10.50
2018-06-27T00:22:15.788Z,12.27
2018-06-27T00:24:44.236Z,10.83
2018-06-27T00:27:12.745Z,11.87
2018-06-27T00:29:41.233Z,10.63
2018-06-27T00:32:09.688Z,12.20
2018-06-27T00:34:38.128Z,11.03
2018-06-27T00:37:06.549Z,11.43
2018-06-27T00:39:35.044Z,10.80
2018-06-27T00:42:03.482Z,10.10
2018-06-27T00:44:31.882Z,10.90
2018-06-27T00:47:00.468Z,10.77
2018-06-27T00:49:28.864Z,11.17
2018-06-27T00:51:57.275Z,11.37
2018-06-27T00:54:25.952Z,10.93
2018-06-27T00:56:54.349Z,10.67
2018-06-27T00:59:22.771Z,10.37
2018-06-27T01:01:51.186Z,10.63
2018-06-27T01:04:19.623Z,10.43
2018-06-27T01:06:48.013Z,10.57
2018-06-27T01:09:16.460Z,10.33
2018-06-27T01:11:44.985Z,11.43
2018-06-27T01:14:13.410Z,10.63
2018-06-27T01:16:41.849Z,11.30
2018-06-27T01:19:10.307Z,11.10
2018-06-27T01:21:38.823Z,10.87
2018-06-27T01:24:07.262Z,10.67
2018-06-27T01:26:35.673Z,10.87
2018-06-27T01:29:04.120Z,11.67
2018-06-27T01:31:32.608Z,10.97
2018-06-27T01:34:01.088Z,11.80
2018-06-27T01:36:29.549Z,11.83
2018-06-27T01:38:57.995Z,11.33
2018-06-27T01:41:26.387Z,12.77
2018-06-27T01:43:54.760Z,13.93
2018-06-27T01:46:23.182Z,13.90
2018-06-27T01:48:51.599Z,12.90
2018-06-27T01:51:20.052Z,12.37
2018-06-27T01:53:48.460Z,12.40
2018-06-27T01:56:16.940Z,13.80
2018-06-27T01:58:45.362Z,13.30
2018-06-27T02:01:13.810Z,13.00
2018-06-27T02:03:42.216Z,13.27
2018-06-27T02:06:10.615Z,13.00
2018-06-27T02:08:39.051Z,13.50
2018-06-27T02:11:07.489Z,13.13
2018-06-27T02:13:35.900Z,12.60
2018-06-27T02:16:04.476Z,12.80
2018-06-27T02:18:32.875Z,12.67
2018-06-27T02:21:01.302Z,12.93
2018-06-27T02:23:29.744Z,13.10
2018-06-27T02:25:58.145Z,11.87
2018-06-27T02:28:26.552Z,12.00
2018-06-27T02:30:54.995Z,12.07
2018-06-27T02:33:30.132Z,12.13
2018-06-27T02:35:59.376Z,12.43
2018-06-27T02:38:28.197Z,13.43
2018-06-27T02:40:56.771Z,14.73
2018-06-27T02:43:25.442Z,13.43
2018-06-27T02:45:54.976Z,13.63
2018-06-27T02:48:23.367Z,13.10
2018-06-27T02:50:51.859Z,13.03
2018-06-27T02:53:20.352Z,13.40
2018-06-27T02:55:48.801Z,13.97
2018-06-27T02:58:17.247Z,14.07
2018-06-27T03:00:45.713Z,13.67
2018-06-27T03:03:14.103Z,14.83
2018-06-27T03:05:42.562Z,14.57
2018-06-27T03:08:10.971Z,16.50
2018-06-27T03:10:39.421Z,14.77
2018-06-27T03:13:07.832Z,15.30
2018-06-27T03:15:36.257Z,16.87
2018-06-27T03:18:04.865Z,15.23
2018-06-27T03:20:33.316Z,15.10
2018-06-27T03:23:02.297Z,16.50
2018-06-27T03:25:30.804Z,16.60
2018-06-27T03:28:00.080Z,16.37
2018-06-27T03:30:28.542Z,17.00
2018-06-27T03:32:56.938Z,17.60
2018-06-27T03:35:25.351Z,17.13
2018-06-27T03:37:53.740Z,16.80
2018-06-27T03:40:22.151Z,17.80
2018-06-27T03:42:50.527Z,18.43
2018-06-27T03:45:18.903Z,18.10
2018-06-27T03:47:47.307Z,16.20
2018-06-27T03:50:15.724Z,16.17
2018-06-27T03:52:46.714Z,16.73
2018-06-27T03:55:15.904Z,16.40
2018-06-27T03:57:44.491Z,18.33
2018-06-27T04:00:12.984Z,17.07
2018-06-27T04:02:42.272Z,17.87
2018-06-27T04:05:10.761Z,16.67
2018-06-27T04:07:39.168Z,18.27
2018-06-27T04:10:09.213Z,16.97
2018-06-27T04:12:37.747Z,18.17
2018-06-27T04:15:06.914Z,17.17
2018-06-27T04:17:35.325Z,17.00
2018-06-27T04:20:03.888Z,17.97
2018-06-27T04:22:33.869Z,16.77
2018-06-27T04:25:02.421Z,17.40
2018-06-27T04:27:31.950Z,17.30
2018-06-27T04:30:01.710Z,16.23
2018-06-27T04:32:30.099Z,18.97
2018-06-27T04:34:59.681Z,15.33
2018-06-27T04:37:28.082Z,16.30
2018-06-27T04:39:56.840Z,16.93
2018-06-27T04:42:25.269Z,17.37
2018-06-27T04:44:53.680Z,14.47
2018-06-27T04:47:22.109Z,16.40
2018-06-27T04:49:50.710Z,15.10
2018-06-27T04:52:19.134Z,16.30
2018-06-27T04:54:47.627Z,16.33
2018-06-27T04:57:15.997Z,14.77
2018-06-27T04:59:44.424Z,14.97
2018-06-27T05:02:12.813Z,14.67
2018-06-27T05:04:41.240Z,14.43
2018-06-27T05:07:09.675Z,15.30
2018-06-27T05:09:38.084Z,14.10
2018-06-27T05:12:07.312Z,14.20
2018-06-27T05:14:35.722Z,16.10
2018-06-27T05:17:04.140Z,15.00
2018-06-27T05:19:32.612Z,14.43
2018-06-27T05:22:01.014Z,15.27
2018-06-27T05:24:29.447Z,14.43
2018-06-27T05:26:57.880Z,13.37
2018-06-27T05:29:26.299Z,13.50
2018-06-27T05:31:54.723Z,14.30
2018-06-27T05:34:23.148Z,14.80
2018-06-27T05:36:52.138Z,13.60
2018-06-27T05:39:21.231Z,13.53
2018-06-27T05:41:50.112Z,13.17
2018-06-27T05:44:18.617Z,14.00
2018-06-27T05:46:46.940Z,12.90
2018-06-27T05:49:15.410Z,12.57
2018-06-27T05:51:43.820Z,13.93
2018-06-27T05:54:12.241Z,15.57
2018-06-27T05:56:41.663Z,15.20
2018-06-27T05:59:10.207Z,15.07
2018-06-27T06:01:38.623Z,15.00
2018-06-27T06:04:07.081Z,15.73
2018-06-27T06:06:35.681Z,14.93
2018-06-27T06:09:06.359Z,15.80
2018-06-27T06:11:34.881Z,14.87
2018-06-27T06:14:03.326Z,14.07
2018-06-27T06:16:31.722Z,14.30
2018-06-27T06:19:00.122Z,16.20
2018-06-27T06:21:28.592Z,23.20
2018-06-27T06:23:57.099Z,17.30
2018-06-27T06:26:25.547Z,15.10
2018-06-27T06:28:53.975Z,14.30
2018-06-27T06:31:22.424Z,13.50
2018-06-27T06:33:51.513Z,13.80
2018-06-27T06:36:20.026Z,14.60
2018-06-27T06:38:48.481Z,14.03
2018-06-27T06:41:16.885Z,14.60
2018-06-27T06:43:45.301Z,13.70
2018-06-27T06:46:13.689Z,14.20
2018-06-27T06:48:42.115Z,13.43
2018-06-27T06:51:10.753Z,13.80
2018-06-27T06:53:39.213Z,14.73
2018-06-27T06:56:07.633Z,12.10
2018-06-27T06:58:36.036Z,13.50
2018-06-27T07:01:04.478Z,13.20
2018-06-27T07:03:32.847Z,12.10
2018-06-27T07:06:01.297Z,13.40
2018-06-27T07:08:29.734Z,12.03
2018-06-27T07:10:58.229Z,12.87
2018-06-27T07:13:26.623Z,21.13
2018-06-27T07:15:55.040Z,12.33
2018-06-27T07:18:23.431Z,12.00
2018-06-27T07:20:51.900Z,10.90
2018-06-27T07:23:20.346Z,11.27
2018-06-27T07:25:48.758Z,13.03
2018-06-27T07:28:17.198Z,11.40
2018-06-27T07:30:45.641Z,10.67
2018-06-27T07:33:14.074Z,11.20
2018-06-27T07:35:42.487Z,10.70
2018-06-27T07:38:11.060Z,13.97
2018-06-27T07:40:39.495Z,9.90
2018-06-27T07:43:07.921Z,10.17
2018-06-27T07:45:36.302Z,10.50
2018-06-27T07:48:04.763Z,9.33
2018-06-27T07:50:33.286Z,9.70
2018-06-27T07:53:01.710Z,9.70
2018-06-27T07:55:30.090Z,8.90
2018-06-27T07:57:58.469Z,9.10
2018-06-27T08:00:26.924Z,9.23
2018-06-27T08:02:55.308Z,8.17
2018-06-27T08:05:23.716Z,9.37
2018-06-27T08:07:52.815Z,8.00
2018-06-27T08:10:21.254Z,9.40
2018-06-27T08:12:51.518Z,10.00
2018-06-27T08:15:20.664Z,9.93
2018-06-27T08:17:49.180Z,8.30
2018-06-27T08:20:17.605Z,9.40
2018-06-27T08:22:45.991Z,8.27
2018-06-27T08:25:14.540Z,10.03
2018-06-27T08:27:43.047Z,9.73
2018-06-27T08:30:11.495Z,8.40
2018-06-27T08:32:40.005Z,10.23
2018-06-27T08:35:08.414Z,8.33
2018-06-27T08:37:36.794Z,10.13
2018-06-27T08:40:05.432Z,9.40
2018-06-27T08:42:33.823Z,8.80
2018-06-27T08:45:02.203Z,9.13
2018-06-27T08:47:30.621Z,9.43
2018-06-27T08:49:59.036Z,8.43
2018-06-27T08:52:27.424Z,9.90
2018-06-27T08:54:55.830Z,7.67
2018-06-27T08:57:24.253Z,10.17
2018-06-27T08:59:52.634Z,8.70
2018-06-27T09:02:21.036Z,11.00
2018-06-27T09:04:49.469Z,8.67
2018-06-27T09:07:18.160Z,8.40
2018-06-27T09:09:46.635Z,9.63
2018-06-27T09:12:15.126Z,8.70
2018-06-27T09:14:43.557Z,9.43
2018-06-27T09:17:11.967Z,8.83
2018-06-27T09:19:40.344Z,8.60
2018-06-27T09:22:08.754Z,9.17
2018-06-27T09:24:37.204Z,8.67
2018-06-27T09:27:05.747Z,9.10
2018-06-27T09:29:34.137Z,9.77
2018-06-27T09:32:02.590Z,8.47
2018-06-27T09:34:31.018Z,8.27
2018-06-27T09:36:59.377Z,6.60
2018-06-27T09:39:27.822Z,7.60
2018-06-27T09:41:56.224Z,7.30
2018-06-27T09:44:24.647Z,6.30
2018-06-27T09:46:53.037Z,6.47
2018-06-27T09:49:21.428Z,6.53
2018-06-27T09:51:49.801Z,6.93
2018-06-27T09:54:18.213Z,6.10
2018-06-27T09:56:46.662Z,6.70
2018-06-27T09:59:15.201Z,6.17
2018-06-27T10:01:43.600Z,5.47
2018-06-27T10:04:12.000Z,5.87
2018-06-27T10:06:40.417Z,6.63
2018-06-27T10:09:09.794Z,5.77
2018-06-27T10:11:38.196Z,5.93
2018-06-27T10:14:06.837Z,5.57
2018-06-27T10:16:35.427Z,7.27
2018-06-27T10:19:03.869Z,6.53
2018-06-27T10:21:32.321Z,6.70
2018-06-27T10:24:01.660Z,6.93
2018-06-27T10:26:30.132Z,8.40
2018-06-27T10:28:58.540Z,7.57
2018-06-27T10:31:26.927Z,7.07
2018-06-27T10:33:55.644Z,6.67
2018-06-27T10:36:24.065Z,5.63
2018-06-27T10:38:52.502Z,5.93
2018-06-27T10:41:21.246Z,5.90
2018-06-27T10:43:49.633Z,6.10
2018-06-27T10:46:18.175Z,5.57
2018-06-27T10:48:46.684Z,5.00
2018-06-27T10:51:15.121Z,5.03
2018-06-27T10:53:43.528Z,4.47
2018-06-27T10:56:11.998Z,4.40
2018-06-27T10:58:40.403Z,4.17
2018-06-27T11:01:08.802Z,4.00
2018-06-27T11:03:37.196Z,3.30
2018-06-27T11:06:06.001Z,3.50
2018-06-27T11:08:35.281Z,3.40
2018-06-27T11:11:03.791Z,3.10
2018-06-27T11:13:32.188Z,3.43
2018-06-27T11:16:00.596Z,2.93
2018-06-27T11:18:29.030Z,2.93
2018-06-27T11:20:57.417Z,2.60
2018-06-27T11:23:25.845Z,3.30
2018-06-27T11:25:54.260Z,3.03
2018-06-27T11:28:22.692Z,3.00
2018-06-27T11:30:51.051Z,2.80
2018-06-27T11:33:19.589Z,3.43
2018-06-27T11:35:48.161Z,2.80
2018-06-27T11:38:16.559Z,2.87
2018-06-27T11:40:44.975Z,2.73
2018-06-27T11:43:13.421Z,2.70
2018-06-27T11:45:41.804Z,2.90
2018-06-27T11:48:10.221Z,3.30
2018-06-27T11:50:38.649Z,3.07
2018-06-27T11:53:07.089Z,2.93
2018-06-27T11:55:35.561Z,3.07
2018-06-27T11:58:03.997Z,2.57
2018-06-27T12:00:32.603Z,2.60
2018-06-27T12:03:01.880Z,2.60
2018-06-27T12:05:30.277Z,2.37
2018-06-27T12:07:58.711Z,2.47
2018-06-27T12:10:27.076Z,2.27
2018-06-27T12:12:55.511Z,2.40
2018-06-27T12:15:23.974Z,2.60
2018-06-27T12:17:52.372Z,2.20
2018-06-27T12:20:20.881Z,2.50
2018-06-27T12:22:49.338Z,2.23
2018-06-27T12:25:18.246Z,2.10
2018-06-27T12:27:46.720Z,2.10
2018-06-27T12:30:19.859Z,2.43
2018-06-27T12:32:48.506Z,2.50
2018-06-27T12:35:17.033Z,10.93
2018-06-27T12:37:45.514Z,6.03
2018-06-27T12:40:13.987Z,3.10
2018-06-27T12:42:42.412Z,2.30
2018-06-27T12:45:11.736Z,2.17
2018-06-27T12:47:40.648Z,2.10
2018-06-27T12:50:09.777Z,2.10
2018-06-27T12:52:38.408Z,2.40
2018-06-27T12:55:08.968Z,2.67
2018-06-27T12:57:37.444Z,6.93
2018-06-27T13:00:07.870Z,3.80
2018-06-27T13:02:36.361Z,7.83
2018-06-27T13:05:05.845Z,3.13
2018-06-27T13:07:34.388Z,2.50
2018-06-27T13:10:02.898Z,2.47
2018-06-27T13:12:31.314Z,2.67
2018-06-27T13:14:59.757Z,3.07
2018-06-27T13:17:28.182Z,2.83
2018-06-27T13:19:56.588Z,2.77
2018-06-27T13:22:25.001Z,3.00
2018-06-27T13:24:53.470Z,2.70
2018-06-27T13:27:22.183Z,2.43
2018-06-27T13:29:50.614Z,3.10
2018-06-27T13:32:19.055Z,2.50
2018-06-27T13:34:47.450Z,2.20
2018-06-27T13:37:15.887Z,2.50
2018-06-27T13:39:44.311Z,2.80
2018-06-27T13:42:12.810Z,2.63
2018-06-27T13:44:41.223Z,2.67
2018-06-27T13:47:09.662Z,2.93
2018-06-27T13:49:38.076Z,3.20
2018-06-27T13:52:06.953Z,3.50
2018-06-27T13:54:35.428Z,2.70
2018-06-27T13:57:03.872Z,3.27
2018-06-27T13:59:32.315Z,3.40
2018-06-27T14:02:00.943Z,3.20
2018-06-27T14:04:29.442Z,3.27
2018-06-27T14:06:57.822Z,3.40
2018-06-27T14:09:26.231Z,2.80
2018-06-27T14:11:54.965Z,10.10
2018-06-27T14:14:23.627Z,4.53
2018-06-27T14:16:52.068Z,3.03
2018-06-27T14:19:20.486Z,2.93
2018-06-27T14:21:49.308Z,2.80
2018-06-27T14:24:17.737Z,3.00
2018-06-27T14:26:46.204Z,3.07
2018-06-27T14:29:14.578Z,3.30
2018-06-27T14:31:44.329Z,8.03
2018-06-27T14:34:13.004Z,8.83
2018-06-27T14:36:41.474Z,3.30
2018-06-27T14:39:10.512Z,2.90
2018-06-27T14:41:39.198Z,2.80
2018-06-27T14:44:07.744Z,2.47
2018-06-27T14:46:38.544Z,9.63
2018-06-27T14:49:06.924Z,4.10
2018-06-27T14:51:35.868Z,12.00
2018-06-27T14:54:04.873Z,3.30
2018-06-27T14:56:33.453Z,3.20
2018-06-27T14:59:01.875Z,2.80
2018-06-27T15:01:30.279Z,3.00
2018-06-27T15:03:58.695Z,3.03
2018-06-27T15:06:27.130Z,2.83
2018-06-27T15:08:55.588Z,2.87
2018-06-27T15:11:24.265Z,2.70
2018-06-27T15:13:52.652Z,3.10
2018-06-27T15:16:21.108Z,2.87
2018-06-27T15:18:49.513Z,2.40
2018-06-27T15:21:18.081Z,2.10
2018-06-27T15:23:46.638Z,2.60
2018-06-27T15:26:14.953Z,5.23
2018-06-27T15:28:43.412Z,6.80
2018-06-27T15:31:11.892Z,3.07
2018-06-27T15:33:41.211Z,1.87
2018-06-27T15:36:09.621Z,2.47
2018-06-27T15:38:38.025Z,2.70
2018-06-27T15:41:08.049Z,13.73
2018-06-27T15:43:36.567Z,2.90
2018-06-27T15:46:05.642Z,2.07
2018-06-27T15:48:34.199Z,2.30
2018-06-27T15:51:02.748Z,2.40
2018-06-27T15:53:31.282Z,2.20
2018-06-27T15:55:59.735Z,5.17
2018-06-27T15:58:29.960Z,3.17
2018-06-27T16:00:58.472Z,6.70
2018-06-27T16:03:27.084Z,2.90
2018-06-27T16:05:55.499Z,6.30
2018-06-27T16:08:23.970Z,6.67
2018-06-27T16:10:53.160Z,5.47
2018-06-27T16:13:21.606Z,2.70
2018-06-27T16:15:50.108Z,2.50
2018-06-27T16:18:18.517Z,2.90
2018-06-27T16:20:47.504Z,2.83
2018-06-27T16:23:15.967Z,3.07
2018-06-27T16:25:45.319Z,3.30
2018-06-27T16:28:13.759Z,2.60
2018-06-27T16:30:42.236Z,2.70
2018-06-27T16:33:10.709Z,2.90
2018-06-27T16:35:39.129Z,2.50
2018-06-27T16:38:07.585Z,2.60
2018-06-27T16:40:36.020Z,2.80
2018-06-27T16:43:05.227Z,2.53
2018-06-27T16:45:33.689Z,2.93
2018-06-27T16:48:02.168Z,3.90
2018-06-27T16:50:30.694Z,3.23
2018-06-27T16:52:59.047Z,3.97
2018-06-27T16:55:27.622Z,3.57
2018-06-27T16:57:56.140Z,2.77
2018-06-27T17:00:24.533Z,3.30
2018-06-27T17:02:52.952Z,3.10
2018-06-27T17:05:21.383Z,7.10
2018-06-27T17:07:49.782Z,2.83
2018-06-27T17:10:18.304Z,2.83
2018-06-27T17:12:46.847Z,3.23
2018-06-27T17:15:15.328Z,6.30
2018-06-27T17:17:43.766Z,4.30
2018-06-27T17:20:12.221Z,2.03
2018-06-27T17:22:40.705Z,2.00
2018-06-27T17:25:09.229Z,2.07
2018-06-27T17:27:37.644Z,2.30
2018-06-27T17:30:06.169Z,2.03
2018-06-27T17:32:35.423Z,2.37
2018-06-27T17:35:03.884Z,2.30
2018-06-27T17:37:32.373Z,3.67
2018-06-27T17:40:00.925Z,12.40
2018-06-27T17:42:29.570Z,2.77
2018-06-27T17:44:57.976Z,2.37
2018-06-27T17:47:26.427Z,2.03
2018-06-27T17:49:54.827Z,2.03
2018-06-27T17:52:23.263Z,2.30
2018-06-27T17:54:51.826Z,2.07
2018-06-27T17:57:20.316Z,2.07
2018-06-27T17:59:48.810Z,3.90
2018-06-27T18:02:17.300Z,2.07
2018-06-27T18:04:45.760Z,1.77
2018-06-27T18:07:14.204Z,2.00
2018-06-27T18:09:42.661Z,6.17
2018-06-27T18:12:11.060Z,20.03
2018-06-27T18:14:39.511Z,2.50
2018-06-27T18:17:08.029Z,1.93
2018-06-27T18:19:36.449Z,2.00
2018-06-27T18:22:05.015Z,2.00
2018-06-27T18:24:33.673Z,2.00
2018-06-27T18:27:02.148Z,2.80
2018-06-27T18:29:30.688Z,3.63
2018-06-27T18:31:59.179Z,17.23
2018-06-27T18:34:27.701Z,2.27
2018-06-27T18:36:56.152Z,1.80
2018-06-27T18:39:24.597Z,2.17
2018-06-27T18:41:52.981Z,1.63
2018-06-27T18:44:21.372Z,1.90
2018-06-27T18:46:49.788Z,1.73
2018-06-27T18:49:18.245Z,2.20
2018-06-27T18:51:46.661Z,2.07
2018-06-27T18:54:15.102Z,3.90
2018-06-27T18:56:43.525Z,2.50
2018-06-27T18:59:11.988Z,2.13
2018-06-27T19:01:40.415Z,1.73
2018-06-27T19:04:08.897Z,16.73
2018-06-27T19:06:37.343Z,2.93
2018-06-27T19:09:08.870Z,1.93
2018-06-27T19:11:37.289Z,1.83
2018-06-27T19:14:05.817Z,2.27
2018-06-27T19:16:34.284Z,1.80
2018-06-27T19:19:02.865Z,2.10
2018-06-27T19:21:31.292Z,1.90
2018-06-27T19:23:59.689Z,1.80
2018-06-27T19:26:28.170Z,1.90
2018-06-27T19:28:56.553Z,1.80
2018-06-27T19:31:24.972Z,6.20
2018-06-27T19:33:53.595Z,4.30
2018-06-27T19:36:22.068Z,2.13
2018-06-27T19:38:50.550Z,2.00
2018-06-27T19:41:19.083Z,1.80
2018-06-27T19:43:47.393Z,2.87
2018-06-27T19:46:15.815Z,68.70
2018-06-27T19:48:44.521Z,5.63
2018-06-27T19:51:12.962Z,2.53
2018-06-27T19:53:41.417Z,1.97
2018-06-27T19:56:09.845Z,2.17
2018-06-27T19:58:38.281Z,2.00
2018-06-27T20:01:06.963Z,1.90
2018-06-27T20:03:35.521Z,2.10
2018-06-27T20:06:04.032Z,1.60
2018-06-27T20:08:32.589Z,2.20
2018-06-27T20:11:00.992Z,1.90
2018-06-27T20:13:29.454Z,2.07
2018-06-27T20:15:57.972Z,29.93
2018-06-27T20:18:26.395Z,30.93
2018-06-27T20:20:54.919Z,3.50
2018-06-27T20:23:23.479Z,2.13
2018-06-27T20:25:52.019Z,2.27
2018-06-27T20:28:20.429Z,7.30
2018-06-27T20:30:48.850Z,23.17
2018-06-27T20:33:17.349Z,3.93
2018-06-27T20:35:45.769Z,2.03
2018-06-27T20:38:14.142Z,1.70
2018-06-27T20:40:42.567Z,2.10
2018-06-27T20:43:11.213Z,2.03
2018-06-27T20:45:39.693Z,2.30
2018-06-27T20:48:08.164Z,2.30
2018-06-27T20:50:36.616Z,1.87
2018-06-27T20:53:05.440Z,1.80
2018-06-27T20:55:34.056Z,1.90
2018-06-27T20:58:02.489Z,1.90
2018-06-27T21:00:30.945Z,2.00
2018-06-27T21:02:59.377Z,1.80
2018-06-27T21:05:27.798Z,14.20
2018-06-27T21:07:56.285Z,11.87
2018-06-27T21:10:24.717Z,2.30
2018-06-27T21:12:53.896Z,2.17
2018-06-27T21:15:22.361Z,2.30
2018-06-27T21:17:50.773Z,2.00
2018-06-27T21:20:19.264Z,1.97
2018-06-27T21:22:47.627Z,1.93
2018-06-27T21:25:16.045Z,33.40
2018-06-27T21:27:44.512Z,6.50
2018-06-27T21:30:12.931Z,2.37
2018-06-27T21:32:41.373Z,1.90
2018-06-27T21:35:09.783Z,1.60
2018-06-27T21:37:38.207Z,1.80
2018-06-27T21:40:06.697Z,2.13
2018-06-27T21:42:35.374Z,2.20
2018-06-27T21:45:03.977Z,2.00
2018-06-27T21:47:32.427Z,2.03
2018-06-27T21:50:00.865Z,2.23
2018-06-27T21:52:29.270Z,2.17
2018-06-27T21:54:57.709Z,2.50
2018-06-27T21:57:26.081Z,2.37
2018-06-27T21:59:54.512Z,2.13
2018-06-27T22:02:23.000Z,2.53
2018-06-27T22:04:51.502Z,2.77
2018-06-27T22:07:19.933Z,2.10
2018-06-27T22:09:48.404Z,2.47
2018-06-27T22:12:16.839Z,2.10
2018-06-27T22:14:45.294Z,1.87
2018-06-27T22:17:13.834Z,3.30
2018-06-27T22:19:42.228Z,2.20
2018-06-27T22:22:10.757Z,2.20
2018-06-27T22:24:39.266Z,2.20
2018-06-27T22:27:07.922Z,2.30
2018-06-27T22:29:37.246Z,3.20
2018-06-27T22:32:05.844Z,2.70
2018-06-27T22:34:34.290Z,2.50
2018-06-27T22:37:02.726Z,1.80
2018-06-27T22:39:31.163Z,1.80
2018-06-27T22:41:59.594Z,3.20
2018-06-27T22:44:27.996Z,2.77
2018-06-27T22:46:56.448Z,2.57
2018-06-27T22:49:24.860Z,2.20
2018-06-27T22:51:53.289Z,2.87
2018-06-27T22:54:21.769Z,2.67
2018-06-27T22:56:50.152Z,2.40
2018-06-27T22:59:18.598Z,2.63
2018-06-27T23:01:47.009Z,2.97
2018-06-27T23:04:15.399Z,2.30
2018-06-27T23:06:43.756Z,2.30
2018-06-27T23:09:12.149Z,2.60
2018-06-27T23:11:40.588Z,3.17
2018-06-27T23:14:09.044Z,2.40
2018-06-27T23:16:37.458Z,2.30
2018-06-27T23:19:05.998Z,2.83
2018-06-27T23:21:34.412Z,2.80
2018-06-27T23:24:02.819Z,3.00
2018-06-27T23:26:31.209Z,3.53
2018-06-27T23:28:59.569Z,3.30
2018-06-27T23:31:28.050Z,3.23
2018-06-27T23:33:56.453Z,3.63
2018-06-27T23:36:24.899Z,3.13
2018-06-27T23:38:53.880Z,3.30
2018-06-27T23:41:22.313Z,3.40
2018-06-27T23:43:50.693Z,3.90
2018-06-27T23:46:19.148Z,3.40
2018-06-27T23:48:47.577Z,3.93
2018-06-27T23:51:16.073Z,3.87
2018-06-27T23:53:44.512Z,3.20
2018-06-27T23:56:12.953Z,3.77
2018-06-27T23:58:42.320Z,3.60
